Time;durP1;ratioP1;P1;durP2;ratioP2;P2;SDS_P1;SDS_P2;PMS_P1;PMS_P2;Temp;Humidity;BMP_temperature;BMP_pressure;BME280_temperature;BME280_humidity;BME280_pressure;Samples;Min_cycle;Max_cycle;Signal;HPM_P1;HPM_P2
2023/05/14 00:02:24;;;;;;;13.27;12.07;;;15.00;1.00;;;;;;5056827;28;20287;-55
2023/05/14 00:04:49;;;;;;;14.57;13.10;;;14.90;1.00;;;;;;5063970;28;20407;-54
2023/05/14 00:07:15;;;;;;;13.87;12.67;;;14.80;1.00;;;;;;5067412;28;20192;-55
2023/05/14 00:09:41;;;;;;;13.93;12.63;;;14.80;1.00;;;;;;5090164;28;20202;-54
2023/05/14 00:12:07;;;;;;;13.73;12.43;;;14.80;1.00;;;;;;5072656;28;20620;-54
2023/05/14 00:14:32;;;;;;;13.80;12.50;;;14.80;1.00;;;;;;5063466;28;20212;-56
2023/05/14 00:16:58;;;;;;;14.70;13.43;;;14.80;1.00;;;;;;5066821;28;20449;-54
2023/05/14 00:19:24;;;;;;;13.70;12.50;;;14.90;1.00;;;;;;5066765;28;20180;-56
2023/05/14 00:21:50;;;;;;;14.80;13.33;;;14.90;1.00;;;;;;5073128;28;20188;-56
2023/05/14 00:24:16;;;;;;;13.67;12.37;;;14.90;1.00;;;;;;5071420;28;20444;-55
2023/05/14 00:26:41;;;;;;;13.70;12.40;;;14.90;1.00;;;;;;5074825;28;20180;-54
2023/05/14 00:29:07;;;;;;;14.60;13.10;;;14.80;1.00;;;;;;5064685;28;20184;-56
2023/05/14 00:31:32;;;;;;;14.10;12.90;;;14.90;1.00;;;;;;5069338;28;20272;-54
2023/05/14 00:33:58;;;;;;;14.43;13.13;;;14.90;1.00;;;;;;5067311;28;20187;-55
2023/05/14 00:36:24;;;;;;;14.93;12.83;;;14.90;1.00;;;;;;5071371;28;20657;-54
2023/05/14 00:38:49;;;;;;;13.40;12.10;;;14.90;1.00;;;;;;5072985;28;20374;-55
2023/05/14 00:41:15;;;;;;;13.27;12.00;;;14.90;1.00;;;;;;5068792;28;20642;-54
2023/05/14 00:43:41;;;;;;;13.00;11.80;;;14.80;1.00;;;;;;5062958;28;20196;-54
2023/05/14 00:46:06;;;;;;;14.30;12.70;;;14.90;1.00;;;;;;5062938;28;20190;-55
2023/05/14 00:48:33;;;;;;;13.43;12.23;;;15.00;1.00;;;;;;5063525;28;20188;-54
2023/05/14 00:50:58;;;;;;;14.60;13.30;;;15.00;1.00;;;;;;5063128;28;20737;-55
2023/05/14 00:53:24;;;;;;;13.83;12.37;;;15.00;1.00;;;;;;5063404;28;20934;-56
2023/05/14 00:55:50;;;;;;;13.43;12.33;;;15.00;1.00;;;;;;5072917;28;20680;-54
2023/05/14 00:58:17;;;;;;;14.07;12.77;;;14.90;1.00;;;;;;5067939;28;20195;-54
2023/05/14 01:00:42;;;;;;;15.37;13.97;;;14.90;1.00;;;;;;5062692;28;20195;-58
2023/05/14 01:03:08;;;;;;;13.83;12.30;;;14.90;1.00;;;;;;5061448;28;20772;-56
2023/05/14 01:05:46;;;;;;;12.30;11.20;;;14.90;1.00;;;;;;5069750;28;20194;-55
2023/05/14 01:08:55;;;;;;;13.40;12.20;;;14.90;1.00;;;;;;5078081;28;20704;-54
2023/05/14 01:11:46;;;;;;;14.20;12.80;;;14.80;1.00;;;;;;5062783;28;20547;-54
2023/05/14 01:14:45;;;;;;;13.10;11.87;;;14.80;1.00;;;;;;5060192;28;20442;-54
2023/05/14 01:17:13;;;;;;;14.00;12.67;;;14.90;1.00;;;;;;5062800;28;20951;-54
2023/05/14 01:19:45;;;;;;;14.30;13.00;;;14.90;1.00;;;;;;5059164;28;20927;-54
2023/05/14 01:22:12;;;;;;;13.77;12.37;;;14.80;1.00;;;;;;5061504;28;20540;-55
2023/05/14 01:24:37;;;;;;;13.47;12.33;;;14.80;1.00;;;;;;5059468;28;20443;-55
2023/05/14 01:27:17;;;;;;;13.43;12.13;;;14.80;1.00;;;;;;5064329;28;20669;-55
2023/05/14 01:29:48;;;;;;;14.07;12.50;;;14.80;1.00;;;;;;5060835;28;20615;-54
2023/05/14 01:32:16;;;;;;;14.47;13.03;;;14.80;1.00;;;;;;5063092;28;20445;-55
2023/05/14 01:34:43;;;;;;;14.17;12.87;;;14.80;1.00;;;;;;5065108;28;20448;-54
2023/05/14 01:37:11;;;;;;;13.87;12.60;;;14.80;1.00;;;;;;5073340;28;20541;-54
2023/05/14 01:39:38;;;;;;;13.37;12.27;;;14.90;1.00;;;;;;5065346;28;20442;-55
2023/05/14 01:42:05;;;;;;;13.13;11.87;;;15.00;1.00;;;;;;5061304;28;20529;-54
2023/05/14 01:44:32;;;;;;;14.30;13.10;;;14.90;1.00;;;;;;5060208;28;20482;-56
2023/05/14 01:46:57;;;;;;;14.00;12.50;;;15.00;1.00;;;;;;5067159;28;20849;-54
2023/05/14 01:49:23;;;;;;;13.97;12.67;;;15.00;1.00;;;;;;5063407;28;20449;-54
2023/05/14 01:51:49;;;;;;;13.90;12.60;;;14.90;1.00;;;;;;5056054;28;20204;-55
2023/05/14 01:54:14;;;;;;;13.33;12.10;;;14.90;1.00;;;;;;5060130;28;20191;-55
2023/05/14 01:56:40;;;;;;;12.33;11.33;;;14.90;1.00;;;;;;5058819;28;20230;-54
2023/05/14 01:59:06;;;;;;;12.73;11.53;;;14.90;1.00;;;;;;5061985;28;20492;-54
2023/05/14 02:01:32;;;;;;;14.60;13.30;;;14.90;1.00;;;;;;5060801;28;20469;-55
2023/05/14 02:03:59;;;;;;;14.20;13.00;;;14.80;1.00;;;;;;5059058;28;20192;-54
2023/05/14 02:06:25;;;;;;;14.50;13.20;;;14.80;1.00;;;;;;5056994;28;20462;-55
2023/05/14 02:08:51;;;;;;;13.93;12.67;;;14.80;1.00;;;;;;5064526;28;20980;-54
2023/05/14 02:11:17;;;;;;;13.33;12.23;;;14.70;1.00;;;;;;5066036;28;20473;-54
2023/05/14 02:13:42;;;;;;;13.47;12.33;;;14.60;1.00;;;;;;5065123;28;20180;-54
2023/05/14 02:16:08;;;;;;;13.90;12.50;;;14.60;1.00;;;;;;5061200;28;20207;-54
2023/05/14 02:18:33;;;;;;;13.23;12.10;;;14.50;1.00;;;;;;5056947;28;20189;-54
2023/05/14 02:20:59;;;;;;;13.57;11.40;;;14.40;1.00;;;;;;5058881;28;20249;-54
2023/05/14 02:23:25;;;;;;;14.03;12.30;;;14.30;1.00;;;;;;5060396;28;20207;-53
2023/05/14 02:25:50;;;;;;;13.63;12.43;;;14.20;1.00;;;;;;5058007;28;20613;-55
2023/05/14 02:28:16;;;;;;;13.67;12.37;;;14.10;1.00;;;;;;5062183;28;20208;-56
2023/05/14 02:30:41;;;;;;;14.00;12.70;;;14.00;1.00;;;;;;5066494;28;20215;-55
2023/05/14 02:33:07;;;;;;;14.73;13.40;;;13.90;1.00;;;;;;5067850;28;20642;-54
2023/05/14 02:35:33;;;;;;;13.90;12.60;;;14.00;1.00;;;;;;5062279;28;20558;-54
2023/05/14 02:37:58;;;;;;;13.90;12.60;;;13.80;1.00;;;;;;5063642;28;20187;-53
2023/05/14 02:40:24;;;;;;;13.43;12.17;;;13.80;1.00;;;;;;5068644;28;20190;-54
2023/05/14 02:42:50;;;;;;;12.03;10.93;;;13.80;1.00;;;;;;5076897;28;20211;-54
2023/05/14 02:45:15;;;;;;;14.13;12.77;;;13.70;1.00;;;;;;5063858;28;20986;-55
2023/05/14 02:47:42;;;;;;;14.23;12.93;;;13.60;1.00;;;;;;5067042;28;20976;-55
2023/05/14 02:50:08;;;;;;;14.60;13.30;;;13.60;1.00;;;;;;5061033;28;20728;-55
2023/05/14 02:52:34;;;;;;;15.13;11.60;;;13.40;1.00;;;;;;5067403;28;20996;-55
2023/05/14 02:55:00;;;;;;;12.00;10.97;;;13.30;1.00;;;;;;5069154;28;20446;-55
2023/05/14 02:57:26;;;;;;;13.90;12.60;;;13.30;1.00;;;;;;5062150;28;20904;-54
2023/05/14 02:59:51;;;;;;;13.67;12.37;;;13.30;1.00;;;;;;5070551;28;20453;-55
2023/05/14 03:02:17;;;;;;;13.87;12.60;;;13.30;1.00;;;;;;5070618;28;20227;-54
2023/05/14 03:04:43;;;;;;;13.90;12.70;;;13.20;1.00;;;;;;5063327;28;20615;-54
2023/05/14 03:07:08;;;;;;;13.87;12.67;;;13.20;1.00;;;;;;5069200;28;20199;-55
2023/05/14 03:09:34;;;;;;;13.93;12.67;;;13.20;1.00;;;;;;5063331;28;20196;-55
2023/05/14 03:11:59;;;;;;;13.80;12.40;;;13.20;1.00;;;;;;5068055;28;20284;-55
2023/05/14 03:14:25;;;;;;;13.70;12.40;;;13.20;1.00;;;;;;5068418;28;20179;-54
2023/05/14 03:16:51;;;;;;;13.67;12.37;;;13.40;1.00;;;;;;5064748;28;20184;-55
2023/05/14 03:19:16;;;;;;;17.90;14.03;;;13.30;1.00;;;;;;5065025;28;20650;-53
2023/05/14 03:21:42;;;;;;;14.00;12.70;;;13.20;1.00;;;;;;5061875;28;20196;-53
2023/05/14 03:24:07;;;;;;;13.77;12.53;;;13.20;1.00;;;;;;5068500;28;20202;-54
2023/05/14 03:26:33;;;;;;;14.53;13.20;;;13.10;1.00;;;;;;5070056;28;20200;-55
2023/05/14 03:28:58;;;;;;;15.03;13.43;;;13.20;1.00;;;;;;5066031;28;20192;-54
2023/05/14 03:31:24;;;;;;;16.17;13.57;;;13.20;1.00;;;;;;5066382;28;20718;-54
2023/05/14 03:33:50;;;;;;;15.10;13.50;;;13.30;1.00;;;;;;5065143;28;20243;-53
2023/05/14 03:36:16;;;;;;;15.37;13.97;;;13.20;1.00;;;;;;5067750;28;20197;-54
2023/05/14 03:38:41;;;;;;;14.03;12.83;;;13.20;1.00;;;;;;5064511;28;20272;-54
2023/05/14 03:41:08;;;;;;;15.37;13.97;;;13.10;1.00;;;;;;5064108;28;20787;-53
2023/05/14 03:43:33;;;;;;;15.40;14.00;;;13.10;1.00;;;;;;5063170;28;20191;-54
2023/05/14 03:45:59;;;;;;;15.50;14.10;;;13.10;1.00;;;;;;5063668;28;21208;-55
2023/05/14 03:48:25;;;;;;;15.57;14.10;;;13.10;1.00;;;;;;5064546;28;20788;-55
2023/05/14 03:50:51;;;;;;;14.47;13.10;;;13.30;1.00;;;;;;5066908;28;20292;-55
2023/05/14 03:53:16;;;;;;;14.00;12.63;;;13.20;1.00;;;;;;5066597;28;20756;-55
2023/05/14 03:55:42;;;;;;;16.00;14.30;;;13.20;1.00;;;;;;5069547;28;20652;-54
2023/05/14 03:58:12;;;;;;;15.30;13.70;;;13.30;1.00;;;;;;5064109;28;20220;-55
2023/05/14 04:00:40;;;;;;;14.77;13.33;;;13.30;1.00;;;;;;5071409;28;20586;-54
2023/05/14 04:03:06;;;;;;;14.37;13.00;;;13.20;1.00;;;;;;5073681;28;20457;-54
2023/05/14 04:05:32;;;;;;;14.70;13.37;;;13.20;1.00;;;;;;5068280;28;20457;-56
2023/05/14 04:07:57;;;;;;;12.13;11.03;;;13.20;1.00;;;;;;5062942;28;20451;-55
2023/05/14 04:10:23;;;;;;;13.70;12.40;;;13.20;1.00;;;;;;5065502;28;20310;-55
2023/05/14 04:12:48;;;;;;;14.13;12.60;;;13.20;1.00;;;;;;5065025;28;20184;-56
2023/05/14 04:15:14;;;;;;;14.00;12.60;;;13.20;1.00;;;;;;5061018;28;20217;-55
2023/05/14 04:17:40;;;;;;;14.50;13.10;;;13.30;1.00;;;;;;5062510;28;20211;-55
2023/05/14 04:20:06;;;;;;;13.53;12.33;;;13.40;1.00;;;;;;5063339;28;20219;-54
2023/05/14 04:22:32;;;;;;;14.47;13.10;;;13.40;1.00;;;;;;5062703;28;20710;-54
2023/05/14 04:24:57;;;;;;;14.10;12.63;;;13.40;1.00;;;;;;5056919;28;20552;-54
2023/05/14 04:27:23;;;;;;;13.00;11.83;;;13.40;1.00;;;;;;5062123;28;20820;-54
2023/05/14 04:29:49;;;;;;;13.17;11.83;;;13.40;1.00;;;;;;5067541;28;20220;-57
2023/05/14 04:32:15;;;;;;;15.00;13.37;;;13.40;1.00;;;;;;5060137;28;20188;-53
2023/05/14 04:34:41;;;;;;;12.93;11.73;;;13.50;1.00;;;;;;5060549;28;20496;-53
2023/05/14 04:37:06;;;;;;;12.20;11.10;;;13.60;1.00;;;;;;5061786;28;20437;-56
2023/05/14 04:39:32;;;;;;;12.00;10.80;;;13.60;1.00;;;;;;5060163;28;20212;-54
2023/05/14 04:41:58;;;;;;;12.03;10.93;;;13.60;1.00;;;;;;5063158;28;20180;-54
2023/05/14 04:44:23;;;;;;;12.30;11.30;;;13.70;1.00;;;;;;5058612;28;20646;-55
2023/05/14 04:46:49;;;;;;;12.93;11.73;;;13.70;1.00;;;;;;5068212;28;20184;-55
2023/05/14 04:49:14;;;;;;;12.80;11.60;;;13.60;1.00;;;;;;5059791;28;20184;-56
2023/05/14 04:51:40;;;;;;;14.40;12.90;;;13.70;1.00;;;;;;5064638;28;20260;-54
2023/05/14 04:54:06;;;;;;;12.70;11.40;;;13.80;1.00;;;;;;5065274;28;20711;-54
2023/05/14 04:56:31;;;;;;;11.60;10.50;;;13.90;1.00;;;;;;5064281;28;20243;-54
2023/05/14 04:58:57;;;;;;;13.27;11.03;;;14.00;1.00;;;;;;5061822;28;20209;-54
2023/05/14 05:01:22;;;;;;;12.60;11.50;;;14.10;1.00;;;;;;5067679;28;20259;-55
2023/05/14 05:03:48;;;;;;;12.80;11.50;;;14.30;1.00;;;;;;5056829;28;20195;-59
2023/05/14 05:06:14;;;;;;;12.30;11.27;;;14.30;1.00;;;;;;5058579;28;20219;-55
2023/05/14 05:08:40;;;;;;;12.60;11.50;;;14.40;1.00;;;;;;5060840;28;20363;-55
2023/05/14 05:11:06;;;;;;;12.63;11.47;;;14.50;1.00;;;;;;5062867;28;20212;-55
2023/05/14 05:13:31;;;;;;;12.60;11.40;;;14.60;1.00;;;;;;5062125;28;20499;-53
2023/05/14 05:15:57;;;;;;;11.60;10.50;;;14.70;1.00;;;;;;5061421;28;20445;-54
2023/05/14 05:18:23;;;;;;;11.80;10.57;;;14.80;1.00;;;;;;5063065;28;20559;-55
2023/05/14 05:20:48;;;;;;;12.10;11.00;;;14.80;1.00;;;;;;5060741;28;20207;-54
2023/05/14 05:23:14;;;;;;;12.10;11.10;;;15.00;1.00;;;;;;5059395;28;20559;-55
2023/05/14 05:25:40;;;;;;;11.50;10.50;;;15.00;1.00;;;;;;5065181;28;20242;-55
2023/05/14 05:28:05;;;;;;;12.30;11.30;;;15.10;1.00;;;;;;5061793;28;20582;-55
2023/05/14 05:30:31;;;;;;;12.63;11.43;;;15.10;1.00;;;;;;5062575;28;20203;-55
2023/05/14 05:32:57;;;;;;;11.37;10.37;;;15.10;1.00;;;;;;5065711;28;20616;-54
2023/05/14 05:35:22;;;;;;;11.53;10.53;;;15.20;1.00;;;;;;5060043;28;20195;-53
2023/05/14 05:37:48;;;;;;;13.33;10.80;;;15.20;1.00;;;;;;5063291;28;20191;-54
2023/05/14 05:40:14;;;;;;;11.30;10.30;;;15.20;1.00;;;;;;5065775;28;20188;-55
2023/05/14 05:42:40;;;;;;;11.40;10.43;;;15.30;1.00;;;;;;5063889;28;20218;-55
2023/05/14 05:45:06;;;;;;;11.47;10.53;;;15.30;1.00;;;;;;5063365;28;20479;-55
2023/05/14 05:47:32;;;;;;;11.27;10.10;;;15.50;1.00;;;;;;5061753;28;20453;-56
2023/05/14 05:49:58;;;;;;;10.80;9.80;;;15.60;1.00;;;;;;5062519;28;20437;-55
2023/05/14 05:52:24;;;;;;;10.40;9.50;;;15.70;1.00;;;;;;5057055;28;21872;-56
2023/05/14 05:54:50;;;;;;;11.90;10.80;;;15.90;1.00;;;;;;5061362;28;20449;-56
2023/05/14 05:57:15;;;;;;;11.00;10.10;;;16.00;1.00;;;;;;5059365;28;20572;-55
2023/05/14 05:59:41;;;;;;;10.97;10.07;;;16.10;1.00;;;;;;5055465;28;20188;-55
2023/05/14 06:02:06;;;;;;;11.10;9.97;;;16.20;1.00;;;;;;5059384;28;20203;-55
2023/05/14 06:04:32;;;;;;;10.67;9.77;;;16.30;1.00;;;;;;5065381;28;20184;-55
2023/05/14 06:06:58;;;;;;;10.93;9.93;;;16.40;1.00;;;;;;5071609;28;20183;-55
2023/05/14 06:09:23;;;;;;;10.93;10.03;;;16.40;1.00;;;;;;5065083;28;20249;-54
2023/05/14 06:11:49;;;;;;;10.43;9.53;;;16.40;1.00;;;;;;5059864;28;20448;-55
2023/05/14 06:14:14;;;;;;;10.57;9.47;;;17.60;1.00;;;;;;5066241;28;21747;-54
2023/05/14 06:16:40;;;;;;;11.20;10.10;;;16.40;1.00;;;;;;5061954;28;20240;-55
2023/05/14 06:19:07;;;;;;;10.80;9.70;;;16.50;1.00;;;;;;5064478;28;20245;-55
2023/05/14 06:21:32;;;;;;;11.40;10.30;;;16.70;1.00;;;;;;5066402;28;20266;-56
2023/05/14 06:23:58;;;;;;;11.57;10.47;;;17.00;1.00;;;;;;5068285;28;21435;-55
2023/05/14 06:26:24;;;;;;;9.90;9.10;;;17.40;1.00;;;;;;5064237;28;20649;-55
2023/05/14 06:28:50;;;;;;;11.73;10.63;;;17.50;1.00;;;;;;5066997;28;20689;-56
2023/05/14 06:31:16;;;;;;;10.00;9.20;;;17.40;1.00;;;;;;5056568;28;20478;-56
2023/05/14 06:33:42;;;;;;;10.20;9.20;;;17.50;1.00;;;;;;5065266;28;20210;-54
2023/05/14 06:36:08;;;;;;;10.03;9.23;;;17.60;99.90;;;;;;5061034;28;21411;-54
2023/05/14 06:38:33;;;;;;;10.07;8.97;;;17.80;99.90;;;;;;5070798;28;20178;-54
2023/05/14 06:40:59;;;;;;;10.50;9.60;;;17.90;99.90;;;;;;5060046;28;20445;-56
2023/05/14 06:43:25;;;;;;;10.13;9.10;;;17.90;99.90;;;;;;5067032;28;20605;-54
2023/05/14 06:45:51;;;;;;;10.80;9.80;;;18.10;99.90;;;;;;5064166;28;20188;-54
2023/05/14 06:48:18;;;;;;;9.57;8.77;;;18.30;99.90;;;;;;5066583;28;20199;-54
2023/05/14 06:50:45;;;;;;;10.40;9.43;;;18.30;99.90;;;;;;5062784;28;20851;-56
2023/05/14 06:53:11;;;;;;;10.23;9.43;;;18.50;99.90;;;;;;5063447;28;20441;-54
2023/05/14 06:55:36;;;;;;;9.07;8.17;;;18.60;99.90;;;;;;5066285;28;20462;-55
2023/05/14 06:58:02;;;;;;;9.30;8.50;;;18.60;99.90;;;;;;5065323;28;20453;-55
2023/05/14 07:00:29;;;;;;;9.90;9.00;;;18.60;99.90;;;;;;5067410;28;20206;-57
2023/05/14 07:02:55;;;;;;;9.17;8.37;;;18.80;99.90;;;;;;5059720;28;20953;-55
2023/05/14 07:05:20;;;;;;;9.57;8.67;;;18.80;99.90;;;;;;5068432;28;20449;-55
2023/05/14 07:07:46;;;;;;;8.40;7.80;;;18.70;99.90;;;;;;5067113;28;20533;-55
2023/05/14 07:10:11;;;;;;;8.50;7.33;;;18.80;99.90;;;;;;5061831;28;20989;-54
2023/05/14 07:12:37;;;;;;;8.47;7.67;;;18.90;99.90;;;;;;5065826;28;20181;-56
2023/05/14 07:15:03;;;;;;;7.90;7.20;;;18.90;99.90;;;;;;5063376;28;20236;-57
2023/05/14 07:17:29;;;;;;;7.90;7.20;;;19.00;99.90;;;;;;5063818;28;20310;-56
2023/05/14 07:19:54;;;;;;;8.43;7.60;;;19.20;99.90;;;;;;5065105;28;20578;-56
2023/05/14 07:22:21;;;;;;;7.13;6.53;;;19.40;99.90;;;;;;5068928;28;20652;-56
2023/05/14 07:24:46;;;;;;;8.10;7.30;;;19.70;99.90;;;;;;5072434;28;20187;-55
2023/05/14 07:27:12;;;;;;;8.73;6.93;;;20.10;99.90;;;;;;5063953;28;20502;-55
2023/05/14 07:29:37;;;;;;;8.63;7.93;;;20.20;99.90;;;;;;5063263;28;20195;-56
2023/05/14 07:32:03;;;;;;;7.40;6.80;;;20.20;99.90;;;;;;5065203;28;20196;-55
2023/05/14 07:34:29;;;;;;;8.03;7.33;;;20.40;99.90;;;;;;5068401;28;20191;-56
2023/05/14 07:36:55;;;;;;;8.03;7.33;;;20.50;99.90;;;;;;5060394;28;20460;-55
2023/05/14 07:39:21;;;;;;;7.03;6.43;;;20.50;99.90;;;;;;5072844;28;20542;-56
2023/05/14 07:41:47;;;;;;;7.13;6.43;;;20.60;99.90;;;;;;5064706;28;20454;-56
2023/05/14 07:44:12;;;;;;;7.40;6.80;;;20.50;99.90;;;;;;5060197;28;20190;-54
2023/05/14 07:46:38;;;;;;;7.83;7.10;;;20.40;99.90;;;;;;5062208;28;20272;-55
2023/05/14 07:49:03;;;;;;;7.63;6.93;;;20.60;99.90;;;;;;5067000;28;20196;-54
2023/05/14 07:51:30;;;;;;;6.73;6.23;;;20.70;99.90;;;;;;5061576;28;20351;-53
2023/05/14 07:53:56;;;;;;;7.10;6.50;;;20.60;99.90;;;;;;5062800;28;20192;-54
2023/05/14 07:56:22;;;;;;;7.60;6.90;;;20.70;99.90;;;;;;5065581;28;20471;-56
2023/05/14 07:58:47;;;;;;;6.40;5.60;;;20.80;99.90;;;;;;5068564;28;20183;-55
2023/05/14 08:01:13;;;;;;;6.67;6.00;;;20.80;99.90;;;;;;5061671;28;20450;-55
2023/05/14 08:03:38;;;;;;;6.63;6.03;;;20.80;99.90;;;;;;5059647;28;21242;-55
2023/05/14 08:06:05;;;;;;;7.03;6.40;;;20.80;99.90;;;;;;5064347;28;20183;-56
2023/05/14 08:08:30;;;;;;;6.50;6.00;;;20.80;99.90;;;;;;5098332;27;20491;-54
2023/05/14 08:10:56;;;;;;;6.23;5.73;;;20.80;99.90;;;;;;5068680;28;20481;-55
2023/05/14 08:13:21;;;;;;;6.93;6.20;;;20.80;99.90;;;;;;5065173;28;20258;-55
2023/05/14 08:15:48;;;;;;;8.10;5.73;;;21.00;99.90;;;;;;5066936;28;20657;-55
2023/05/14 08:18:13;;;;;;;6.50;6.00;;;20.90;99.90;;;;;;5066290;28;20199;-55
2023/05/14 08:20:39;;;;;;;6.20;5.40;;;21.00;99.90;;;;;;5062706;28;20519;-55
2023/05/14 08:23:06;;;;;;;6.30;5.80;;;20.80;99.90;;;;;;5061277;28;20280;-55
2023/05/14 08:25:32;;;;;;;7.70;5.97;;;20.90;99.90;;;;;;5062271;28;20176;-54
2023/05/14 08:27:58;;;;;;;6.90;6.30;;;21.00;99.90;;;;;;5066267;28;20436;-56
2023/05/14 08:30:24;;;;;;;6.40;5.90;;;21.20;99.90;;;;;;5061941;28;20559;-57
2023/05/14 08:32:50;;;;;;;6.80;6.20;;;21.50;99.90;;;;;;5065259;28;20480;-55
2023/05/14 08:35:17;;;;;;;6.00;5.50;;;21.50;99.90;;;;;;5059801;28;20225;-56
2023/05/14 08:37:42;;;;;;;6.73;6.13;;;21.30;99.90;;;;;;5071452;28;20236;-56
2023/05/14 08:40:08;;;;;;;6.70;6.10;;;21.10;99.90;;;;;;5060626;28;20791;-56
2023/05/14 08:42:37;;;;;;;8.83;6.73;;;21.00;99.90;;;;;;5060716;28;20191;-55
2023/05/14 08:45:05;;;;;;;6.77;5.90;;;20.90;99.90;;;;;;5062517;28;20449;-56
2023/05/14 08:47:31;;;;;;;6.03;5.43;;;20.70;99.90;;;;;;5065269;28;20754;-55
2023/05/14 08:50:05;;;;;;;6.73;6.10;;;20.80;99.90;;;;;;5072111;28;20440;-55
2023/05/14 08:52:32;;;;;;;7.20;6.50;;;20.90;99.90;;;;;;5067785;28;20447;-56
2023/05/14 08:55:03;;;;;;;6.30;5.80;;;21.10;99.90;;;;;;5061568;28;20442;-55
2023/05/14 08:57:30;;;;;;;7.10;6.53;;;21.50;99.90;;;;;;5068347;28;20484;-55
2023/05/14 08:59:57;;;;;;;7.40;6.73;;;21.70;99.90;;;;;;5067516;28;20460;-55
2023/05/14 09:02:26;;;;;;;8.67;6.60;;;21.60;99.90;;;;;;5062535;28;20432;-56
2023/05/14 09:04:55;;;;;;;7.27;6.67;;;21.50;99.90;;;;;;5062814;28;20413;-58
2023/05/14 09:07:21;;;;;;;7.87;7.17;;;21.40;99.90;;;;;;5063903;28;20421;-58
2023/05/14 09:09:47;;;;;;;7.40;6.70;;;21.30;99.90;;;;;;5076687;28;20449;-56
2023/05/14 09:12:13;;;;;;;6.90;6.30;;;21.20;99.90;;;;;;5070471;28;20189;-55
2023/05/14 09:14:38;;;;;;;7.00;6.30;;;21.10;99.90;;;;;;5064443;28;20180;-55
2023/05/14 09:17:04;;;;;;;6.30;5.70;;;21.10;99.90;;;;;;5066272;28;20192;-55
2023/05/14 09:19:30;;;;;;;10.90;5.70;;;21.10;99.90;;;;;;5063702;28;21179;-57
2023/05/14 09:21:58;;;;;;;5.10;4.63;;;21.00;99.90;;;;;;5068209;28;20187;-55
2023/05/14 09:24:28;;;;;;;7.07;4.80;;;21.10;99.90;;;;;;5060580;28;20446;-55
2023/05/14 09:26:56;;;;;;;5.00;4.50;;;21.00;99.90;;;;;;5067818;28;20487;-53
2023/05/14 09:29:25;;;;;;;5.20;4.63;;;21.00;99.90;;;;;;5061430;28;20453;-55
2023/05/14 09:31:51;;;;;;;5.10;4.70;;;20.90;99.90;;;;;;5059129;28;20470;-54
2023/05/14 09:34:43;;;;;;;5.97;5.30;;;21.10;99.90;;;;;;5061344;28;20587;-54
2023/05/14 09:37:09;;;;;;;5.70;5.10;;;21.30;99.90;;;;;;5061036;28;20422;-54
2023/05/14 09:39:36;;;;;;;6.00;5.40;;;21.50;99.90;;;;;;5064195;28;20605;-54
2023/05/14 09:42:02;;;;;;;6.07;5.53;;;21.70;99.90;;;;;;5070386;28;20649;-55
2023/05/14 09:44:28;;;;;;;5.77;5.27;;;21.90;99.90;;;;;;5072490;28;20458;-55
2023/05/14 09:46:55;;;;;;;5.40;5.00;;;22.10;99.90;;;;;;5072127;28;20438;-56
2023/05/14 09:49:21;;;;;;;5.93;5.43;;;22.20;99.90;;;;;;5066705;28;20215;-55
2023/05/14 09:51:48;;;;;;;5.40;4.93;;;22.20;99.90;;;;;;5071519;28;20469;-56
2023/05/14 09:54:13;;;;;;;5.60;5.10;;;22.20;99.90;;;;;;5066784;28;21272;-55
2023/05/14 09:56:39;;;;;;;6.17;5.67;;;22.20;99.90;;;;;;5065823;28;20474;-55
2023/05/14 09:59:05;;;;;;;5.70;5.30;;;22.20;99.90;;;;;;5071388;28;20180;-56
2023/05/14 10:01:34;;;;;;;6.30;5.63;;;22.30;99.90;;;;;;5067240;28;20188;-54
2023/05/14 10:04:02;;;;;;;5.83;5.33;;;22.40;99.90;;;;;;5066822;28;20191;-54
2023/05/14 10:06:32;;;;;;;4.83;4.43;;;22.50;99.90;;;;;;5074021;28;20440;-57
2023/05/14 10:09:02;;;;;;;6.00;5.50;;;22.50;99.90;;;;;;5069859;28;20439;-56
2023/05/14 10:11:31;;;;;;;5.47;4.93;;;22.40;99.90;;;;;;5070695;28;20443;-57
2023/05/14 10:14:01;;;;;;;5.53;4.93;;;22.30;99.90;;;;;;5066168;28;20470;-56
2023/05/14 10:16:30;;;;;;;6.03;5.30;;;21.90;99.90;;;;;;5063400;28;22910;-56
2023/05/14 10:19:11;;;;;;;6.30;5.70;;;21.80;99.90;;;;;;5069795;28;20479;-54
2023/05/14 10:21:40;;;;;;;6.20;5.60;;;21.90;99.90;;;;;;5073629;28;20439;-56
2023/05/14 10:24:07;;;;;;;6.40;5.80;;;22.10;99.90;;;;;;5064777;28;20753;-56
2023/05/14 10:26:39;;;;;;;6.50;6.00;;;22.60;99.90;;;;;;5068779;28;20964;-58
2023/05/14 10:29:05;;;;;;;7.20;6.60;;;23.00;99.90;;;;;;5061816;28;20481;-58
2023/05/14 10:32:05;;;;;;;6.13;5.63;;;23.50;99.90;;;;;;5063338;28;20482;-55
2023/05/14 10:34:42;;;;;;;5.20;4.70;;;23.70;99.90;;;;;;5052940;28;20747;-57
2023/05/14 10:37:17;;;;;;;5.53;5.13;;;23.90;99.90;;;;;;5066359;28;20452;-57
2023/05/14 10:39:51;;;;;;;6.00;5.50;;;24.30;99.90;;;;;;5072162;28;20456;-57
2023/05/14 10:42:26;;;;;;;5.97;5.40;;;24.40;99.90;;;;;;5077087;28;20456;-58
2023/05/14 10:44:57;;;;;;;5.10;4.70;;;24.40;99.90;;;;;;5069488;28;20458;-56
2023/05/14 10:47:24;;;;;;;6.50;5.60;;;24.50;99.90;;;;;;5071866;28;20496;-56
2023/05/14 10:49:53;;;;;;;5.50;5.07;;;24.50;99.90;;;;;;5071354;28;20468;-56
2023/05/14 10:52:19;;;;;;;6.70;4.97;;;24.50;99.90;;;;;;5075443;28;20434;-57
2023/05/14 10:55:08;;;;;;;5.90;5.40;;;24.70;99.90;;;;;;5074302;28;20485;-57
2023/05/14 10:57:37;;;;;;;5.47;4.97;;;24.70;99.90;;;;;;5074357;28;20982;-57
2023/05/14 11:00:06;;;;;;;5.30;4.80;;;24.50;99.90;;;;;;5068130;28;20441;-58
2023/05/14 11:02:41;;;;;;;5.63;5.20;;;24.40;99.90;;;;;;5065628;28;20457;-56
2023/05/14 11:05:09;;;;;;;5.40;4.90;;;24.50;99.90;;;;;;5072075;28;20441;-55
2023/05/14 11:07:36;;;;;;;4.40;4.03;;;24.80;99.90;;;;;;5066978;28;20440;-57
2023/05/14 11:10:10;;;;;;;5.73;5.23;;;24.70;99.90;;;;;;5066384;28;20801;-57
2023/05/14 11:12:38;;;;;;;4.63;4.23;;;24.50;99.90;;;;;;5066993;28;20443;-56
2023/05/14 11:15:08;;;;;;;4.67;3.83;;;24.10;99.90;;;;;;5066464;28;20451;-57
2023/05/14 11:17:34;;;;;;;4.50;4.10;;;23.70;99.90;;;;;;5068947;28;20470;-56
2023/05/14 11:20:00;;;;;;;4.83;4.00;;;24.00;99.90;;;;;;5074460;28;20537;-57
2023/05/14 11:22:26;;;;;;;4.63;4.23;;;24.30;99.90;;;;;;5068309;28;20622;-56
2023/05/14 11:24:52;;;;;;;5.20;4.80;;;24.20;99.90;;;;;;5071882;28;21050;-58
2023/05/14 11:27:19;;;;;;;4.60;4.30;;;24.00;99.90;;;;;;5077631;28;20186;-57
2023/05/14 11:29:45;;;;;;;5.13;4.67;;;23.80;99.90;;;;;;5073073;28;20470;-56
2023/05/14 11:32:12;;;;;;;4.80;4.40;;;23.60;99.90;;;;;;5076548;28;20453;-57
2023/05/14 11:34:38;;;;;;;4.43;4.03;;;23.40;99.90;;;;;;5066208;28;20793;-55
2023/05/14 11:37:05;;;;;;;5.03;4.50;;;23.40;99.90;;;;;;5073223;28;20413;-56
2023/05/14 11:39:37;;;;;;;5.17;4.70;;;23.40;99.90;;;;;;5076957;28;20418;-56
2023/05/14 11:42:11;;;;;;;5.67;5.07;;;23.30;99.90;;;;;;5068938;28;20482;-55
2023/05/14 11:44:38;;;;;;;5.77;4.90;;;23.50;99.90;;;;;;5066330;28;20432;-56
2023/05/14 11:47:04;;;;;;;5.30;4.90;;;23.40;99.90;;;;;;5071551;28;20430;-57
2023/05/14 11:49:31;;;;;;;5.37;4.87;;;23.00;99.90;;;;;;5067182;28;20499;-58
2023/05/14 11:52:01;;;;;;;5.37;4.87;;;22.90;99.90;;;;;;5065713;28;20473;-58
2023/05/14 11:54:28;;;;;;;5.10;4.70;;;22.90;99.90;;;;;;5062109;28;20451;-56
2023/05/14 11:56:55;;;;;;;5.03;4.53;;;23.10;99.90;;;;;;5064965;28;20478;-55
2023/05/14 11:59:24;;;;;;;5.27;4.87;;;23.40;99.90;;;;;;5071015;28;20425;-56
2023/05/14 12:01:51;;;;;;;5.13;4.73;;;23.50;99.90;;;;;;5074462;28;20533;-58
2023/05/14 12:04:21;;;;;;;5.30;4.90;;;23.90;99.90;;;;;;5067273;28;20530;-57
2023/05/14 12:06:50;;;;;;;5.33;4.93;;;24.20;99.90;;;;;;5079160;28;20455;-57
2023/05/14 12:09:20;;;;;;;4.80;4.50;;;24.60;99.90;;;;;;5075655;28;21080;-57
2023/05/14 12:11:47;;;;;;;4.33;3.93;;;25.20;99.90;;;;;;5079794;28;20456;-55
2023/05/14 12:14:21;;;;;;;5.10;4.70;;;25.70;99.90;;;;;;5075088;28;20518;-56
2023/05/14 12:16:48;;;;;;;5.57;5.17;;;26.00;99.90;;;;;;5078245;28;20418;-55
2023/05/14 12:19:15;;;;;;;5.10;4.53;;;26.30;99.90;;;;;;5078523;28;20458;-57
2023/05/14 12:21:47;;;;;;;4.80;4.40;;;26.10;99.90;;;;;;5064508;28;20424;-55
2023/05/14 12:24:14;;;;;;;7.07;4.27;;;25.30;99.90;;;;;;5069137;28;20453;-58
2023/05/14 12:26:44;;;;;;;4.70;4.30;;;25.00;99.90;;;;;;5071656;28;20478;-57
2023/05/14 12:29:12;;;;;;;4.60;4.20;;;25.10;99.90;;;;;;5068355;28;21185;-56
2023/05/14 12:31:50;;;;;;;3.90;3.60;;;25.10;99.90;;;;;;5066438;28;20468;-57
2023/05/14 12:34:16;;;;;;;4.30;4.00;;;25.30;99.90;;;;;;5071292;28;21069;-59
2023/05/14 12:36:42;;;;;;;4.47;4.07;;;25.20;99.90;;;;;;5065974;28;20455;-57
2023/05/14 12:39:08;;;;;;;4.60;4.20;;;25.30;99.90;;;;;;5071763;28;20444;-57
2023/05/14 12:41:35;;;;;;;5.13;3.77;;;25.60;99.90;;;;;;5071670;28;20495;-59